createdAt,value
2023-05-19T00:00:22.491Z,972.43
2023-05-19T00:01:22.341Z,972.40
2023-05-19T00:02:22.483Z,972.38
2023-05-19T00:03:22.561Z,972.37
2023-05-19T00:04:22.522Z,972.37
2023-05-19T00:05:22.384Z,972.37
2023-05-19T00:06:22.403Z,972.34
2023-05-19T00:07:22.247Z,972.34
2023-05-19T00:08:22.307Z,972.37
2023-05-19T00:09:22.222Z,972.39
2023-05-19T00:10:22.351Z,972.42
2023-05-19T00:11:22.261Z,972.43
2023-05-19T00:12:22.334Z,972.40
2023-05-19T00:13:22.306Z,972.39
2023-05-19T00:14:22.330Z,972.36
2023-05-19T00:15:22.155Z,972.35
2023-05-19T00:16:22.312Z,972.34
2023-05-19T00:17:22.122Z,972.31
2023-05-19T00:18:22.151Z,972.30
2023-05-19T00:19:22.188Z,972.31
2023-05-19T00:20:22.181Z,972.32
2023-05-19T00:21:22.076Z,972.30
2023-05-19T00:22:23.568Z,972.29
2023-05-19T00:23:22.033Z,972.34
2023-05-19T00:24:22.102Z,972.31
2023-05-19T00:25:22.009Z,972.30
2023-05-19T00:26:22.968Z,972.30
2023-05-19T00:27:22.236Z,972.33
2023-05-19T00:28:21.965Z,972.33
2023-05-19T00:29:22.149Z,972.32
2023-05-19T00:30:21.941Z,972.27
2023-05-19T00:31:22.030Z,972.29
2023-05-19T00:32:21.974Z,972.28
2023-05-19T00:33:21.981Z,972.26
2023-05-19T00:34:21.969Z,972.27
2023-05-19T00:35:21.976Z,972.26
2023-05-19T00:36:21.843Z,972.23
2023-05-19T00:37:22.012Z,972.23
2023-05-19T00:38:21.855Z,972.21
2023-05-19T00:39:22.017Z,972.18
2023-05-19T00:40:21.790Z,972.24
2023-05-19T00:41:21.964Z,972.22
2023-05-19T00:42:21.763Z,972.19
2023-05-19T00:43:22.008Z,972.20
2023-05-19T00:44:21.775Z,972.21
2023-05-19T00:45:21.969Z,972.21
2023-05-19T00:46:21.836Z,972.20
2023-05-19T00:47:21.945Z,972.19
2023-05-19T00:48:21.699Z,972.19
2023-05-19T00:49:21.827Z,972.18
2023-05-19T00:50:21.684Z,972.14
2023-05-19T00:51:21.794Z,972.15
2023-05-19T00:52:21.650Z,972.13
2023-05-19T00:53:21.808Z,972.13
2023-05-19T00:54:21.634Z,972.11
2023-05-19T00:55:21.864Z,972.11
2023-05-19T00:56:21.594Z,972.13
2023-05-19T00:57:21.864Z,972.11
2023-05-19T00:58:21.852Z,972.10
2023-05-19T00:59:21.576Z,972.07
2023-05-19T01:00:21.799Z,972.10
2023-05-19T01:01:21.817Z,972.08
2023-05-19T01:02:21.864Z,972.07
2023-05-19T01:03:21.787Z,972.08
2023-05-19T01:04:21.491Z,972.09
2023-05-19T01:05:21.708Z,972.07
2023-05-19T01:06:21.457Z,972.05
2023-05-19T01:07:21.655Z,972.07
2023-05-19T01:08:21.434Z,972.03
2023-05-19T01:09:21.604Z,972.04
2023-05-19T01:10:21.402Z,972.01
2023-05-19T01:11:21.645Z,971.96
2023-05-19T01:12:21.391Z,971.97
2023-05-19T01:13:21.715Z,971.95
2023-05-19T01:14:21.377Z,971.94
2023-05-19T01:15:21.589Z,971.92
2023-05-19T01:16:21.390Z,971.94
2023-05-19T01:17:21.573Z,971.98
2023-05-19T01:18:21.340Z,971.97
2023-05-19T01:19:21.540Z,971.97
2023-05-19T01:20:21.270Z,971.99
2023-05-19T01:21:21.392Z,972.00
2023-05-19T01:22:21.263Z,971.99
2023-05-19T01:23:21.599Z,972.02
2023-05-19T01:24:21.342Z,972.03
2023-05-19T01:25:21.272Z,972.05
2023-05-19T01:26:21.320Z,972.05
2023-05-19T01:27:21.204Z,972.02
2023-05-19T01:28:21.329Z,972.03
2023-05-19T01:29:21.206Z,972.06
2023-05-19T01:30:21.375Z,972.02
2023-05-19T01:31:21.172Z,972.09
2023-05-19T01:32:21.176Z,972.06
2023-05-19T01:33:21.119Z,972.07
2023-05-19T01:34:21.265Z,972.10
2023-05-19T01:35:21.131Z,972.13
2023-05-19T01:36:21.193Z,972.12
2023-05-19T01:37:21.080Z,972.10
2023-05-19T01:38:21.124Z,972.12
2023-05-19T01:39:21.198Z,972.13
2023-05-19T01:40:21.018Z,972.12
2023-05-19T01:41:21.265Z,972.15
2023-05-19T01:42:20.998Z,972.17
2023-05-19T01:43:21.024Z,972.12
2023-05-19T01:44:20.998Z,972.09
2023-05-19T01:45:21.035Z,972.11
2023-05-19T01:46:20.987Z,972.09
2023-05-19T01:47:20.979Z,972.08
2023-05-19T01:48:20.950Z,972.04
2023-05-19T01:49:20.963Z,972.06
2023-05-19T01:50:20.921Z,972.04
2023-05-19T01:51:21.137Z,972.05
2023-05-19T01:52:20.887Z,972.05
2023-05-19T01:53:20.934Z,972.04
2023-05-19T01:54:20.850Z,972.01
2023-05-19T01:55:20.910Z,972.02
2023-05-19T01:56:20.847Z,972.01
2023-05-19T01:57:20.961Z,972.02
2023-05-19T01:58:20.846Z,971.99
2023-05-19T01:59:20.930Z,971.98
2023-05-19T02:00:21.461Z,971.98
2023-05-19T02:01:21.006Z,971.98
2023-05-19T02:02:20.804Z,971.97
2023-05-19T02:03:20.774Z,971.95
2023-05-19T02:04:20.830Z,971.95
2023-05-19T02:05:20.779Z,971.93
2023-05-19T02:06:20.743Z,971.98
2023-05-19T02:07:20.799Z,971.98
2023-05-19T02:08:20.721Z,971.96
2023-05-19T02:09:20.834Z,971.95
2023-05-19T02:10:20.816Z,971.96
2023-05-19T02:11:20.822Z,971.96
2023-05-19T02:12:20.916Z,971.95
2023-05-19T02:13:20.596Z,971.93
2023-05-19T02:14:20.700Z,971.96
2023-05-19T02:15:20.572Z,971.94
2023-05-19T02:16:20.762Z,971.91
2023-05-19T02:17:20.585Z,971.92
2023-05-19T02:18:20.712Z,971.92
2023-05-19T02:19:20.663Z,971.94
2023-05-19T02:20:20.621Z,971.94
2023-05-19T02:21:20.482Z,971.95
2023-05-19T02:22:20.586Z,971.99
2023-05-19T02:23:20.454Z,971.95
2023-05-19T02:24:20.557Z,972.00
2023-05-19T02:25:20.432Z,971.97
2023-05-19T02:26:20.521Z,971.98
2023-05-19T02:27:20.434Z,971.98
2023-05-19T02:28:20.544Z,971.97
2023-05-19T02:29:20.411Z,971.95
2023-05-19T02:30:20.597Z,971.94
2023-05-19T02:31:20.432Z,971.98
2023-05-19T02:32:20.524Z,971.92
2023-05-19T02:33:20.317Z,971.92
2023-05-19T02:34:20.457Z,971.91
2023-05-19T02:35:20.327Z,971.92
2023-05-19T02:36:20.479Z,971.90
2023-05-19T02:37:20.347Z,971.91
2023-05-19T02:38:20.495Z,971.89
2023-05-19T02:39:20.252Z,971.87
2023-05-19T02:40:20.305Z,971.86
2023-05-19T02:41:20.258Z,971.87
2023-05-19T02:42:20.326Z,971.85
2023-05-19T02:43:20.202Z,971.86
2023-05-19T02:44:20.363Z,971.86
2023-05-19T02:45:20.195Z,971.88
2023-05-19T02:46:20.394Z,971.87
2023-05-19T02:47:20.188Z,971.85
2023-05-19T02:48:20.362Z,971.84
2023-05-19T02:49:20.137Z,971.85
2023-05-19T02:50:20.181Z,971.87
2023-05-19T02:51:20.127Z,971.89
2023-05-19T02:52:20.243Z,971.87
2023-05-19T02:53:20.072Z,971.89
2023-05-19T02:54:20.162Z,971.83
2023-05-19T02:55:20.035Z,971.88
2023-05-19T02:56:20.218Z,971.85
2023-05-19T02:57:20.068Z,971.86
2023-05-19T02:58:20.227Z,971.82
2023-05-19T02:59:20.018Z,971.80
2023-05-19T03:00:20.047Z,971.80
2023-05-19T03:01:19.988Z,971.80
2023-05-19T03:02:20.117Z,971.81
2023-05-19T03:03:20.087Z,971.81
2023-05-19T03:04:20.168Z,971.84
2023-05-19T03:05:19.927Z,971.81
2023-05-19T03:06:19.967Z,971.79
2023-05-19T03:07:20.619Z,971.84
2023-05-19T03:08:19.885Z,971.81
2023-05-19T03:09:20.024Z,971.78
2023-05-19T03:10:19.867Z,971.79
2023-05-19T03:11:19.987Z,971.79
2023-05-19T03:12:19.884Z,971.81
2023-05-19T03:13:19.966Z,971.81
2023-05-19T03:14:19.826Z,971.81
2023-05-19T03:15:19.891Z,971.78
2023-05-19T03:16:19.844Z,971.78
2023-05-19T03:17:19.880Z,971.79
2023-05-19T03:18:19.798Z,971.85
2023-05-19T03:19:19.904Z,971.81
2023-05-19T03:20:19.782Z,971.88
2023-05-19T03:21:19.779Z,971.84
2023-05-19T03:22:19.782Z,971.84
2023-05-19T03:23:19.686Z,971.89
2023-05-19T03:24:19.797Z,971.89
2023-05-19T03:25:19.661Z,971.91
2023-05-19T03:26:19.863Z,971.91
2023-05-19T03:27:19.634Z,971.90
2023-05-19T03:28:19.833Z,971.91
2023-05-19T03:29:19.602Z,971.91
2023-05-19T03:30:19.730Z,971.93
2023-05-19T03:31:19.619Z,971.91
2023-05-19T03:32:19.793Z,971.93
2023-05-19T03:33:19.690Z,971.93
2023-05-19T03:34:20.698Z,971.93
2023-05-19T03:35:19.544Z,971.90
2023-05-19T03:36:19.633Z,971.93
2023-05-19T03:37:19.528Z,971.96
2023-05-19T03:38:19.603Z,971.94
2023-05-19T03:39:19.471Z,971.94
2023-05-19T03:40:19.716Z,971.94
2023-05-19T03:41:19.464Z,971.95
2023-05-19T03:42:19.560Z,971.95
2023-05-19T03:43:19.413Z,971.93
2023-05-19T03:44:19.532Z,971.92
2023-05-19T03:45:19.398Z,971.94
2023-05-19T03:46:19.850Z,971.91
2023-05-19T03:47:19.373Z,971.94
2023-05-19T03:48:21.156Z,971.93
2023-05-19T03:49:19.349Z,971.96
2023-05-19T03:50:19.479Z,971.94
2023-05-19T03:51:19.322Z,971.94
2023-05-19T03:52:19.498Z,971.97
2023-05-19T03:53:19.391Z,971.92
2023-05-19T03:54:19.307Z,971.91
2023-05-19T03:55:19.438Z,971.93
2023-05-19T03:56:19.271Z,971.97
2023-05-19T03:57:19.329Z,971.97
2023-05-19T03:58:19.290Z,971.95
2023-05-19T03:59:19.305Z,971.95
2023-05-19T04:00:19.228Z,971.96
2023-05-19T04:01:19.328Z,971.98
2023-05-19T04:02:19.486Z,971.96
2023-05-19T04:03:19.513Z,971.92
2023-05-19T04:04:19.233Z,971.95
2023-05-19T04:05:19.263Z,971.93
2023-05-19T04:06:19.210Z,971.93
2023-05-19T04:07:19.176Z,971.93
2023-05-19T04:08:19.123Z,971.94
2023-05-19T04:09:19.330Z,971.96
2023-05-19T04:10:19.108Z,971.96
2023-05-19T04:11:19.191Z,971.97
2023-05-19T04:12:19.073Z,971.99
2023-05-19T04:13:19.099Z,971.94
2023-05-19T04:14:19.083Z,971.95
2023-05-19T04:15:19.126Z,971.95
2023-05-19T04:16:19.072Z,971.98
2023-05-19T04:17:19.124Z,971.94
2023-05-19T04:18:18.999Z,971.98
2023-05-19T04:19:19.188Z,971.95
2023-05-19T04:20:19.020Z,971.94
2023-05-19T04:21:19.054Z,971.96
2023-05-19T04:22:18.960Z,971.96
2023-05-19T04:23:18.976Z,971.99
2023-05-19T04:24:19.101Z,971.95
2023-05-19T04:25:18.985Z,972.01
2023-05-19T04:26:19.015Z,971.98
2023-05-19T04:27:18.863Z,971.96
2023-05-19T04:28:19.143Z,971.97
2023-05-19T04:29:18.850Z,971.94
2023-05-19T04:30:18.985Z,971.95
2023-05-19T04:31:18.912Z,971.96
2023-05-19T04:32:18.967Z,971.93
2023-05-19T04:33:18.811Z,971.95
2023-05-19T04:34:18.974Z,971.92
2023-05-19T04:35:18.748Z,971.92
2023-05-19T04:36:18.872Z,971.95
2023-05-19T04:37:18.773Z,971.94
2023-05-19T04:38:18.989Z,971.94
2023-05-19T04:39:18.735Z,971.92
2023-05-19T04:40:18.850Z,971.91
2023-05-19T04:41:18.721Z,971.93
2023-05-19T04:42:18.980Z,971.92
2023-05-19T04:43:18.664Z,971.95
2023-05-19T04:44:18.972Z,971.96
2023-05-19T04:45:18.730Z,971.94
2023-05-19T04:46:18.689Z,971.98
2023-05-19T04:47:18.781Z,972.00
2023-05-19T04:48:18.643Z,971.99
2023-05-19T04:49:18.700Z,972.02
2023-05-19T04:50:18.667Z,972.05
2023-05-19T04:51:18.559Z,971.99
2023-05-19T04:52:18.794Z,971.98
2023-05-19T04:53:18.592Z,972.00
2023-05-19T04:54:19.697Z,972.01
2023-05-19T04:55:18.702Z,972.00
2023-05-19T04:56:18.575Z,972.01
2023-05-19T04:57:18.579Z,971.99
2023-05-19T04:58:18.505Z,971.94
2023-05-19T04:59:18.571Z,972.00
2023-05-19T05:00:18.513Z,971.95
2023-05-19T05:01:18.572Z,971.97
2023-05-19T05:02:18.521Z,971.92
2023-05-19T05:03:18.573Z,971.92
2023-05-19T05:04:18.465Z,971.92
2023-05-19T05:05:18.551Z,971.92
2023-05-19T05:06:18.422Z,971.92
2023-05-19T05:07:18.565Z,971.89
2023-05-19T05:08:18.369Z,971.92
2023-05-19T05:09:18.371Z,971.89
2023-05-19T05:10:18.393Z,971.92
2023-05-19T05:11:18.392Z,971.89
2023-05-19T05:12:18.335Z,971.87
2023-05-19T05:13:18.447Z,971.90
2023-05-19T05:14:18.326Z,971.87
2023-05-19T05:15:18.344Z,971.83
2023-05-19T05:16:18.349Z,971.86
2023-05-19T05:17:18.242Z,971.82
2023-05-19T05:18:18.354Z,971.83
2023-05-19T05:19:18.279Z,971.85
2023-05-19T05:20:18.471Z,971.84
2023-05-19T05:21:18.256Z,971.89
2023-05-19T05:22:18.204Z,971.89
2023-05-19T05:23:18.307Z,971.93
2023-05-19T05:24:18.693Z,971.95
2023-05-19T05:25:18.241Z,971.94
2023-05-19T05:26:18.200Z,971.91
2023-05-19T05:27:18.101Z,971.92
2023-05-19T05:28:18.223Z,971.95
2023-05-19T05:29:18.084Z,971.96
2023-05-19T05:30:18.219Z,971.91
2023-05-19T05:31:18.106Z,971.92
2023-05-19T05:32:18.156Z,971.89
2023-05-19T05:33:18.217Z,971.95
2023-05-19T05:34:18.158Z,971.94
2023-05-19T05:35:18.044Z,971.93
2023-05-19T05:36:18.131Z,971.92
2023-05-19T05:37:17.984Z,971.93
2023-05-19T05:38:18.162Z,971.93
2023-05-19T05:39:17.965Z,971.88
2023-05-19T05:40:18.097Z,971.93
2023-05-19T05:41:17.920Z,971.94
2023-05-19T05:42:18.003Z,971.90
2023-05-19T05:43:17.946Z,971.94
2023-05-19T05:44:18.023Z,971.94
2023-05-19T05:45:17.887Z,971.92
2023-05-19T05:46:18.076Z,971.93
2023-05-19T05:47:17.854Z,971.95
2023-05-19T05:48:18.045Z,971.96
2023-05-19T05:49:17.863Z,972.01
2023-05-19T05:50:18.074Z,972.01
2023-05-19T05:51:17.802Z,972.00
2023-05-19T05:52:17.868Z,971.98
2023-05-19T05:53:17.787Z,972.00
2023-05-19T05:54:17.910Z,971.99
2023-05-19T05:55:17.805Z,972.00
2023-05-19T05:56:17.913Z,972.00
2023-05-19T05:57:17.901Z,972.04
2023-05-19T05:58:17.747Z,971.99
2023-05-19T05:59:17.862Z,972.03
2023-05-19T06:00:17.691Z,972.03
2023-05-19T06:01:17.887Z,972.00
2023-05-19T06:02:17.764Z,972.05
2023-05-19T06:03:17.988Z,972.05
2023-05-19T06:04:17.643Z,972.00
2023-05-19T06:05:17.817Z,972.02
2023-05-19T06:06:18.232Z,972.02
2023-05-19T06:07:18.054Z,972.04
2023-05-19T06:08:17.611Z,972.05
2023-05-19T06:09:17.777Z,972.01
2023-05-19T06:10:18.038Z,971.98
2023-05-19T06:11:17.763Z,972.04
2023-05-19T06:12:17.560Z,972.03
2023-05-19T06:13:17.803Z,972.05
2023-05-19T06:14:17.554Z,972.02
2023-05-19T06:15:17.702Z,972.04
2023-05-19T06:16:17.525Z,972.00
2023-05-19T06:17:17.654Z,972.03
2023-05-19T06:18:17.668Z,972.08
2023-05-19T06:19:23.707Z,972.06
2023-05-19T06:20:17.556Z,972.03
2023-05-19T06:21:17.487Z,972.02
2023-05-19T06:22:17.523Z,972.00
2023-05-19T06:23:17.446Z,972.00
2023-05-19T06:24:17.496Z,972.02
2023-05-19T06:25:17.462Z,972.00
2023-05-19T06:26:17.412Z,971.98
2023-05-19T06:27:17.422Z,971.97
2023-05-19T06:28:17.505Z,971.94
2023-05-19T06:29:17.606Z,971.96
2023-05-19T06:30:18.083Z,971.91
2023-05-19T06:31:17.645Z,971.91
2023-05-19T06:32:17.827Z,971.92
2023-05-19T06:33:17.406Z,971.93
2023-05-19T06:34:17.427Z,971.91
2023-05-19T06:35:17.289Z,971.89
2023-05-19T06:36:17.462Z,971.88
2023-05-19T06:37:17.241Z,971.90
2023-05-19T06:38:17.386Z,971.90
2023-05-19T06:39:17.276Z,971.91
2023-05-19T06:40:17.226Z,971.93
2023-05-19T06:41:17.235Z,971.92
2023-05-19T06:42:17.320Z,971.90
2023-05-19T06:43:17.205Z,971.90
2023-05-19T06:44:17.934Z,971.92
2023-05-19T06:45:17.253Z,971.93
2023-05-19T06:46:17.200Z,971.94
2023-05-19T06:47:17.243Z,971.91
2023-05-19T06:48:17.234Z,971.88
2023-05-19T06:49:17.092Z,971.90
2023-05-19T06:50:17.177Z,971.92
2023-05-19T06:51:17.095Z,971.93
2023-05-19T06:52:17.111Z,971.94
2023-05-19T06:53:17.206Z,971.94
2023-05-19T06:54:17.099Z,971.94
2023-05-19T06:55:17.052Z,971.97
2023-05-19T06:56:17.042Z,971.96
2023-05-19T06:57:17.039Z,971.97
2023-05-19T06:58:17.100Z,971.94
2023-05-19T06:59:17.033Z,972.00
2023-05-19T07:00:18.801Z,971.99
2023-05-19T07:01:17.022Z,971.98
2023-05-19T07:02:17.215Z,972.00
2023-05-19T07:03:17.047Z,971.98
2023-05-19T07:04:16.966Z,971.99
2023-05-19T07:05:16.903Z,972.00
2023-05-19T07:06:17.102Z,972.01
2023-05-19T07:07:16.896Z,971.93
2023-05-19T07:08:16.953Z,971.94
2023-05-19T07:09:16.858Z,971.94
2023-05-19T07:10:16.995Z,971.95
2023-05-19T07:11:16.897Z,971.98
2023-05-19T07:12:16.897Z,971.93
2023-05-19T07:13:16.855Z,971.96
2023-05-19T07:14:17.011Z,971.93
2023-05-19T07:15:16.888Z,971.96
2023-05-19T07:16:17.018Z,971.92
2023-05-19T07:17:17.904Z,971.94
2023-05-19T07:18:16.985Z,971.91
2023-05-19T07:19:16.985Z,971.90
2023-05-19T07:20:16.855Z,971.88
2023-05-19T07:21:16.762Z,971.88
2023-05-19T07:22:16.875Z,971.91
2023-05-19T07:23:17.503Z,971.87
2023-05-19T07:24:16.656Z,971.90
2023-05-19T07:25:16.724Z,971.89
2023-05-19T07:26:16.882Z,971.87
2023-05-19T07:27:16.713Z,971.87
2023-05-19T07:28:16.592Z,971.86
2023-05-19T07:29:16.738Z,971.86
2023-05-19T07:30:17.197Z,971.88
2023-05-19T07:31:16.653Z,971.87
2023-05-19T07:32:16.863Z,971.87
2023-05-19T07:33:16.701Z,971.87
2023-05-19T07:34:16.569Z,971.86
2023-05-19T07:35:16.652Z,971.87
2023-05-19T07:36:16.559Z,971.92
2023-05-19T07:37:16.608Z,971.90
2023-05-19T07:38:16.504Z,971.85
2023-05-19T07:39:16.594Z,971.89
2023-05-19T07:40:16.439Z,971.92
2023-05-19T07:41:16.535Z,971.88
2023-05-19T07:42:16.497Z,971.93
2023-05-19T07:43:16.492Z,971.94
2023-05-19T07:44:16.403Z,971.95
2023-05-19T07:45:16.724Z,971.94
2023-05-19T07:46:16.668Z,971.94
2023-05-19T07:47:16.812Z,971.98
2023-05-19T07:48:16.570Z,971.97
2023-05-19T07:49:16.900Z,972.00
2023-05-19T07:50:16.439Z,971.99
2023-05-19T07:51:16.622Z,971.94
2023-05-19T07:52:16.584Z,971.97
2023-05-19T07:53:16.592Z,971.92
2023-05-19T07:54:16.360Z,971.89
2023-05-19T07:55:16.901Z,971.91
2023-05-19T07:56:16.510Z,971.89
2023-05-19T07:57:16.485Z,971.86
2023-05-19T07:58:17.222Z,971.87
2023-05-19T07:59:16.667Z,971.89
2023-05-19T08:00:16.507Z,971.88
2023-05-19T08:01:16.288Z,971.87
2023-05-19T08:02:16.155Z,971.87
2023-05-19T08:03:16.616Z,971.89
2023-05-19T08:04:16.209Z,971.88
2023-05-19T08:05:16.474Z,971.87
2023-05-19T08:06:16.103Z,971.88
2023-05-19T08:07:16.228Z,971.82
2023-05-19T08:08:16.087Z,971.86
2023-05-19T08:09:16.192Z,971.84
2023-05-19T08:10:16.046Z,971.86
2023-05-19T08:11:16.245Z,971.88
2023-05-19T08:12:16.105Z,971.85
2023-05-19T08:13:16.114Z,971.85
2023-05-19T08:14:15.997Z,971.86
2023-05-19T08:15:16.122Z,971.83
2023-05-19T08:16:16.018Z,971.84
2023-05-19T08:17:16.184Z,971.80
2023-05-19T08:18:15.992Z,971.79
2023-05-19T08:19:16.226Z,971.75
2023-05-19T08:20:15.965Z,971.72
2023-05-19T08:21:16.153Z,971.72
2023-05-19T08:22:15.926Z,971.72
2023-05-19T08:23:16.097Z,971.72
2023-05-19T08:24:16.290Z,971.72
2023-05-19T08:25:16.100Z,971.72
2023-05-19T08:26:15.867Z,971.75
2023-05-19T08:27:15.945Z,971.70
2023-05-19T08:28:15.902Z,971.69
2023-05-19T08:29:16.130Z,971.65
2023-05-19T08:30:15.980Z,971.67
2023-05-19T08:31:16.256Z,971.70
2023-05-19T08:32:15.818Z,971.68
2023-05-19T08:33:15.893Z,971.64
2023-05-19T08:34:16.155Z,971.64
2023-05-19T08:35:15.929Z,971.61
2023-05-19T08:36:15.710Z,971.66
2023-05-19T08:37:15.863Z,971.61
2023-05-19T08:38:15.708Z,971.62
2023-05-19T08:39:15.790Z,971.61
2023-05-19T08:40:15.664Z,971.61
2023-05-19T08:41:15.936Z,971.61
2023-05-19T08:42:15.632Z,971.61
2023-05-19T08:43:15.815Z,971.60
2023-05-19T08:44:17.512Z,971.64
2023-05-19T08:45:15.820Z,971.64
2023-05-19T08:46:15.642Z,971.65
2023-05-19T08:47:15.834Z,971.62
2023-05-19T08:48:15.891Z,971.64
2023-05-19T08:49:15.849Z,971.63
2023-05-19T08:50:15.633Z,971.67
2023-05-19T08:51:15.549Z,971.65
2023-05-19T08:52:15.672Z,971.69
2023-05-19T08:53:31.884Z,971.66
2023-05-19T08:54:15.543Z,971.67
2023-05-19T08:55:15.628Z,971.64
2023-05-19T08:56:15.462Z,971.65
2023-05-19T08:57:15.726Z,971.64
2023-05-19T08:58:15.431Z,971.64
2023-05-19T08:59:15.609Z,971.68
2023-05-19T09:00:15.493Z,971.64
2023-05-19T09:01:15.528Z,971.63
2023-05-19T09:02:15.413Z,971.63
2023-05-19T09:03:22.778Z,971.63
2023-05-19T09:04:15.645Z,971.61
2023-05-19T09:05:15.485Z,971.63
2023-05-19T09:06:15.384Z,971.61
2023-05-19T09:07:15.655Z,971.58
2023-05-19T09:08:15.305Z,971.58
2023-05-19T09:09:15.600Z,971.59
2023-05-19T09:10:15.282Z,971.59
2023-05-19T09:11:15.475Z,971.60
2023-05-19T09:12:15.260Z,971.57
2023-05-19T09:13:15.494Z,971.61
2023-05-19T09:14:15.252Z,971.55
2023-05-19T09:15:15.429Z,971.58
2023-05-19T09:16:15.280Z,971.53
2023-05-19T09:17:15.471Z,971.49
2023-05-19T09:18:15.224Z,971.48
2023-05-19T09:19:15.425Z,971.49
2023-05-19T09:20:15.140Z,971.47
2023-05-19T09:21:15.256Z,971.50
2023-05-19T09:22:15.187Z,971.52
2023-05-19T09:23:15.395Z,971.53
2023-05-19T09:24:15.108Z,971.51
2023-05-19T09:25:15.347Z,971.56
2023-05-19T09:26:15.089Z,971.52
2023-05-19T09:27:15.224Z,971.55
2023-05-19T09:28:15.101Z,971.56
2023-05-19T09:29:15.206Z,971.54
2023-05-19T09:30:15.035Z,971.50
2023-05-19T09:31:15.109Z,971.56
2023-05-19T09:32:15.051Z,971.52
2023-05-19T09:33:15.145Z,971.52
2023-05-19T09:34:15.002Z,971.50
2023-05-19T09:35:15.156Z,971.50
2023-05-19T09:36:14.977Z,971.52
2023-05-19T09:37:15.092Z,971.51
2023-05-19T09:38:14.915Z,971.49
2023-05-19T09:39:15.060Z,971.48
2023-05-19T09:40:15.100Z,971.48
2023-05-19T09:41:14.943Z,971.48
2023-05-19T09:42:14.975Z,971.49
2023-05-19T09:43:15.010Z,971.51
2023-05-19T09:44:15.131Z,971.50
2023-05-19T09:45:14.991Z,971.48
2023-05-19T09:46:14.992Z,971.50
2023-05-19T09:47:14.909Z,971.50
2023-05-19T09:48:14.803Z,971.46
2023-05-19T09:49:14.981Z,971.44
2023-05-19T09:50:14.803Z,971.47
2023-05-19T09:51:14.948Z,971.46
2023-05-19T09:52:14.770Z,971.49
2023-05-19T09:53:14.849Z,971.49
2023-05-19T09:54:14.877Z,971.48
2023-05-19T09:55:15.077Z,971.48
2023-05-19T09:56:14.709Z,971.45
2023-05-19T09:57:15.253Z,971.43
2023-05-19T09:58:14.688Z,971.46
2023-05-19T09:59:14.791Z,971.43
2023-05-19T10:00:14.818Z,971.44
2023-05-19T10:01:15.695Z,971.44
2023-05-19T10:02:14.812Z,971.49
2023-05-19T10:03:14.865Z,971.48
2023-05-19T10:04:14.581Z,971.48
2023-05-19T10:05:14.841Z,971.52
2023-05-19T10:06:14.768Z,971.53
2023-05-19T10:07:14.590Z,971.50
2023-05-19T10:08:14.740Z,971.51
2023-05-19T10:09:14.545Z,971.49
2023-05-19T10:10:14.564Z,971.54
2023-05-19T10:11:14.545Z,971.52
2023-05-19T10:12:14.683Z,971.51
2023-05-19T10:13:14.491Z,971.55
2023-05-19T10:14:14.610Z,971.52
2023-05-19T10:15:14.442Z,971.53
2023-05-19T10:16:14.630Z,971.55
2023-05-19T10:17:14.468Z,971.53
2023-05-19T10:18:14.692Z,971.49
2023-05-19T10:19:14.471Z,971.50
2023-05-19T10:20:14.655Z,971.51
2023-05-19T10:21:14.406Z,971.51
2023-05-19T10:22:14.557Z,971.53
2023-05-19T10:23:14.423Z,971.49
2023-05-19T10:24:14.463Z,971.53
2023-05-19T10:25:14.332Z,971.50
2023-05-19T10:26:14.491Z,971.51
2023-05-19T10:27:14.331Z,971.48
2023-05-19T10:28:14.439Z,971.51
2023-05-19T10:29:14.260Z,971.47
2023-05-19T10:30:16.364Z,971.45
2023-05-19T10:31:14.250Z,971.43
2023-05-19T10:32:14.541Z,971.44
2023-05-19T10:33:14.267Z,971.42
2023-05-19T10:34:14.378Z,971.39
2023-05-19T10:35:14.185Z,971.40
2023-05-19T10:36:14.249Z,971.40
2023-05-19T10:37:14.160Z,971.44
2023-05-19T10:38:14.275Z,971.41
2023-05-19T10:39:14.172Z,971.45
2023-05-19T10:40:14.343Z,971.50
2023-05-19T10:41:14.137Z,971.49
2023-05-19T10:42:14.301Z,971.45
2023-05-19T10:43:14.093Z,971.50
2023-05-19T10:44:14.263Z,971.47
2023-05-19T10:45:14.064Z,971.46
2023-05-19T10:46:14.150Z,971.46
2023-05-19T10:47:14.161Z,971.46
2023-05-19T10:48:14.157Z,971.49
2023-05-19T10:49:14.036Z,971.50
2023-05-19T10:50:14.201Z,971.45
2023-05-19T10:51:14.626Z,971.43
2023-05-19T10:52:14.165Z,971.44
2023-05-19T10:53:14.044Z,971.42
2023-05-19T10:54:14.491Z,971.44
2023-05-19T10:55:14.119Z,971.45
2023-05-19T10:56:13.973Z,971.46
2023-05-19T10:57:14.089Z,971.43
2023-05-19T10:58:14.105Z,971.47
2023-05-19T10:59:13.977Z,971.45
2023-05-19T11:00:14.164Z,971.48
2023-05-19T11:01:13.871Z,971.46
2023-05-19T11:02:13.996Z,971.44
2023-05-19T11:03:13.944Z,971.46
2023-05-19T11:04:14.093Z,971.47
2023-05-19T11:05:13.857Z,971.44
2023-05-19T11:06:13.895Z,971.46
2023-05-19T11:07:13.803Z,971.46
2023-05-19T11:08:13.839Z,971.47
2023-05-19T11:09:13.784Z,971.45
2023-05-19T11:10:13.972Z,971.42
2023-05-19T11:11:13.793Z,971.45
2023-05-19T11:12:13.886Z,971.43
2023-05-19T11:13:14.900Z,971.43
2023-05-19T11:14:13.801Z,971.42
2023-05-19T11:15:13.730Z,971.41
2023-05-19T11:16:13.940Z,971.43
2023-05-19T11:17:13.712Z,971.38
2023-05-19T11:18:13.798Z,971.45
2023-05-19T11:19:13.718Z,971.47
2023-05-19T11:20:13.723Z,971.45
2023-05-19T11:21:13.774Z,971.49
2023-05-19T11:22:13.688Z,971.43
2023-05-19T11:23:13.710Z,971.45
2023-05-19T11:24:13.752Z,971.42
2023-05-19T11:25:13.591Z,971.38
2023-05-19T11:26:13.728Z,971.37
2023-05-19T11:27:13.597Z,971.39
2023-05-19T11:28:13.717Z,971.40
2023-05-19T11:29:13.524Z,971.40
2023-05-19T11:30:13.755Z,971.35
2023-05-19T11:31:13.503Z,971.36
2023-05-19T11:32:13.815Z,971.42
2023-05-19T11:33:13.715Z,971.40
2023-05-19T11:34:13.531Z,971.43
2023-05-19T11:35:13.511Z,971.45
2023-05-19T11:36:13.740Z,971.45
2023-05-19T11:37:13.399Z,971.45
2023-05-19T11:38:13.593Z,971.45
2023-05-19T11:39:13.451Z,971.46
2023-05-19T11:40:13.548Z,971.51
2023-05-19T11:41:13.359Z,971.49
2023-05-19T11:42:13.506Z,971.52
2023-05-19T11:43:13.365Z,971.53
2023-05-19T11:44:13.446Z,971.54
2023-05-19T11:45:13.416Z,971.52
2023-05-19T11:46:13.549Z,971.55
2023-05-19T11:47:13.550Z,971.53
2023-05-19T11:48:13.347Z,971.52
2023-05-19T11:49:13.431Z,971.48
2023-05-19T11:50:13.310Z,971.47
2023-05-19T11:51:13.321Z,971.48
2023-05-19T11:52:13.274Z,971.46
2023-05-19T11:53:13.461Z,971.44
2023-05-19T11:54:13.208Z,971.44
2023-05-19T11:55:13.355Z,971.43
2023-05-19T11:56:13.189Z,971.40
2023-05-19T11:57:13.257Z,971.43
2023-05-19T11:58:13.182Z,971.43
2023-05-19T11:59:13.228Z,971.39
2023-05-19T12:00:13.153Z,971.42
2023-05-19T12:01:13.194Z,971.43
2023-05-19T12:02:13.178Z,971.41
2023-05-19T12:03:13.439Z,971.39
2023-05-19T12:04:13.143Z,971.41
2023-05-19T12:05:13.193Z,971.42
2023-05-19T12:06:13.179Z,971.42
2023-05-19T12:07:13.147Z,971.40
2023-05-19T12:08:13.093Z,971.41
2023-05-19T12:09:13.139Z,971.41
2023-05-19T12:10:13.020Z,971.39
2023-05-19T12:11:13.205Z,971.37
2023-05-19T12:12:13.020Z,971.38
2023-05-19T12:13:13.168Z,971.33
2023-05-19T12:14:12.977Z,971.35
2023-05-19T12:15:13.009Z,971.35
2023-05-19T12:16:13.002Z,971.34
2023-05-19T12:17:12.984Z,971.36
2023-05-19T12:18:12.990Z,971.35
2023-05-19T12:19:13.054Z,971.31
2023-05-19T12:20:12.944Z,971.38
2023-05-19T12:21:13.064Z,971.40
2023-05-19T12:22:12.903Z,971.40
2023-05-19T12:23:13.070Z,971.39
2023-05-19T12:24:12.914Z,971.39
2023-05-19T12:25:13.051Z,971.38
2023-05-19T12:26:12.824Z,971.38
2023-05-19T12:27:12.865Z,971.44
2023-05-19T12:28:12.848Z,971.43